Time;durP1;ratioP1;P1;durP2;ratioP2;P2;SDS_P1;SDS_P2;PMS_P1;PMS_P2;Temp;Humidity;BMP_temperature;BMP_pressure;BME280_temperature;BME280_humidity;BME280_pressure;Samples;Min_cycle;Max_cycle;Signal;HPM_P1;HPM_P2
2023/10/05 00:02:08;;;;;;;7.70;2.85;;;;;;;;;;5068281;28;20515;-75
2023/10/05 00:04:41;;;;;;;7.95;2.72;;;;;;;;;;5066645;28;20064;-73
2023/10/05 00:07:07;;;;;;;8.25;2.70;;;;;;;;;;5054372;28;20436;-74
2023/10/05 00:09:33;;;;;;;8.90;3.22;;;;;;;;;;5054893;28;20033;-74
2023/10/05 00:12:02;;;;;;;7.55;3.15;;;;;;;;;;5071185;28;20097;-75
2023/10/05 00:14:27;;;;;;;10.88;3.63;;;;;;;;;;5061471;28;20707;-75
2023/10/05 00:16:55;;;;;;;7.68;3.05;;;;;;;;;;5065742;28;20035;-75
2023/10/05 00:19:21;;;;;;;7.18;2.88;;;;;;;;;;5049494;28;20035;-76
2023/10/05 00:24:14;;;;;;;10.88;3.22;;;;;;;;;;5063129;28;20037;-75
2023/10/05 00:26:40;;;;;;;7.45;3.17;;;;;;;;;;5065984;28;20090;-75
2023/10/05 00:29:28;;;;;;;5.88;2.78;;;;;;;;;;5066153;28;20032;-76
2023/10/05 00:31:58;;;;;;;7.40;2.70;;;;;;;;;;5064246;28;20060;-75
2023/10/05 00:34:30;;;;;;;7.07;2.65;;;;;;;;;;5058061;28;20401;-74
2023/10/05 00:36:59;;;;;;;11.40;3.10;;;;;;;;;;5070221;28;20039;-75
2023/10/05 00:39:26;;;;;;;10.20;3.60;;;;;;;;;;5062629;28;20575;-75
2023/10/05 00:44:24;;;;;;;8.27;3.20;;;;;;;;;;5047553;28;20029;-75
2023/10/05 00:46:49;;;;;;;7.47;2.65;;;;;;;;;;5061713;28;20024;-75
2023/10/05 00:49:27;;;;;;;8.18;3.63;;;;;;;;;;5049152;28;20036;-75
2023/10/05 00:52:00;;;;;;;6.10;2.25;;;;;;;;;;5060640;28;20138;-75
2023/10/05 00:54:31;;;;;;;6.28;2.60;;;;;;;;;;5045741;28;20036;-76
2023/10/05 00:56:57;;;;;;;8.65;2.97;;;;;;;;;;5060471;28;20040;-74
2023/10/05 00:59:24;;;;;;;5.95;2.55;;;;;;;;;;5062463;28;20029;-76
2023/10/05 01:02:03;;;;;;;8.27;3.33;;;;;;;;;;5041210;28;20038;-75
2023/10/05 01:04:53;;;;;;;8.15;3.10;;;;;;;;;;5070079;28;20609;-76
2023/10/05 01:15:05;;;;;;;7.78;3.53;;;;;;;;;;5060932;28;20660;-74
2023/10/05 01:17:30;;;;;;;6.57;2.60;;;;;;;;;;5046635;28;20443;-75
2023/10/05 01:20:06;;;;;;;5.63;2.70;;;;;;;;;;5066708;28;20032;-75
2023/10/05 01:22:38;;;;;;;6.60;2.78;;;;;;;;;;5069077;28;20054;-74
2023/10/05 01:25:05;;;;;;;9.38;3.20;;;;;;;;;;5039664;28;20041;-74
2023/10/05 01:27:33;;;;;;;9.50;2.70;;;;;;;;;;5062373;28;20040;-75
2023/10/05 01:29:59;;;;;;;9.98;3.20;;;;;;;;;;5074407;28;20035;-75
2023/10/05 01:32:26;;;;;;;10.70;2.97;;;;;;;;;;5070440;28;20148;-76
2023/10/05 01:34:52;;;;;;;6.95;2.20;;;;;;;;;;5059943;28;20536;-74
2023/10/05 01:37:21;;;;;;;8.95;3.00;;;;;;;;;;5057856;28;20056;-75
2023/10/05 01:39:46;;;;;;;10.45;3.15;;;;;;;;;;5061625;28;20098;-74
2023/10/05 01:42:12;;;;;;;8.75;2.80;;;;;;;;;;5064538;28;20036;-75
2023/10/05 01:44:40;;;;;;;9.80;2.92;;;;;;;;;;5070224;28;20047;-74
2023/10/05 01:47:06;;;;;;;10.40;3.28;;;;;;;;;;5062489;28;20051;-75
2023/10/05 01:49:32;;;;;;;6.85;2.88;;;;;;;;;;5044851;28;20036;-75
2023/10/05 01:51:58;;;;;;;7.28;2.80;;;;;;;;;;5056081;28;20044;-75
2023/10/05 01:54:26;;;;;;;7.68;2.30;;;;;;;;;;5060305;28;20119;-74
2023/10/05 01:56:54;;;;;;;5.35;2.22;;;;;;;;;;5061277;28;20028;-75
2023/10/05 01:59:21;;;;;;;7.25;2.60;;;;;;;;;;5056013;28;20541;-75
2023/10/05 02:01:47;;;;;;;7.75;2.53;;;;;;;;;;5071496;28;20043;-75
2023/10/05 02:04:15;;;;;;;6.40;2.60;;;;;;;;;;5062104;28;20047;-73
2023/10/05 02:06:42;;;;;;;10.77;3.53;;;;;;;;;;5063122;28;20032;-74
2023/10/05 02:09:14;;;;;;;5.97;2.78;;;;;;;;;;5070564;28;20036;-75
2023/10/05 02:11:41;;;;;;;8.05;2.50;;;;;;;;;;5066409;28;20032;-74
2023/10/05 02:14:06;;;;;;;7.07;3.30;;;;;;;;;;5065601;28;20127;-75
2023/10/05 02:16:33;;;;;;;5.07;2.90;;;;;;;;;;5061585;28;20111;-75
2023/10/05 02:19:06;;;;;;;5.25;2.17;;;;;;;;;;5064427;28;20044;-75
2023/10/05 02:21:37;;;;;;;9.43;3.38;;;;;;;;;;5070840;28;20598;-73
2023/10/05 02:24:29;;;;;;;5.28;2.40;;;;;;;;;;5057880;28;20035;-75
2023/10/05 02:29:19;;;;;;;5.03;2.20;;;;;;;;;;5061777;28;20074;-75
2023/10/05 02:34:44;;;;;;;5.50;2.53;;;;;;;;;;5069236;28;20078;-75
2023/10/05 02:37:11;;;;;;;9.50;2.78;;;;;;;;;;5065513;28;20896;-75
2023/10/05 02:39:37;;;;;;;6.90;3.20;;;;;;;;;;5052416;28;20671;-75
2023/10/05 02:42:11;;;;;;;7.05;2.50;;;;;;;;;;5070656;28;20126;-75
2023/10/05 02:44:37;;;;;;;4.65;2.15;;;;;;;;;;5074634;28;20024;-75
2023/10/05 02:47:08;;;;;;;8.52;2.75;;;;;;;;;;5066955;28;20043;-75
2023/10/05 02:49:35;;;;;;;8.63;2.70;;;;;;;;;;5050696;28;20588;-75
2023/10/05 02:52:04;;;;;;;7.35;2.63;;;;;;;;;;5045209;28;20048;-75
2023/10/05 02:54:30;;;;;;;6.47;2.42;;;;;;;;;;5067486;28;20044;-75
2023/10/05 02:56:56;;;;;;;5.65;2.45;;;;;;;;;;5066959;28;20119;-75
2023/10/05 02:59:26;;;;;;;8.07;2.58;;;;;;;;;;5074553;28;20496;-74
2023/10/05 03:01:54;;;;;;;5.70;2.20;;;;;;;;;;5065069;28;20035;-76
2023/10/05 03:04:21;;;;;;;7.65;2.72;;;;;;;;;;5062903;28;20032;-75
2023/10/05 03:06:53;;;;;;;10.23;3.20;;;;;;;;;;5038413;28;20782;-76
2023/10/05 03:09:21;;;;;;;5.50;2.63;;;;;;;;;;5065556;28;20044;-76
2023/10/05 03:11:47;;;;;;;4.93;2.13;;;;;;;;;;5075590;28;20122;-76
2023/10/05 03:14:16;;;;;;;5.60;2.20;;;;;;;;;;5078122;28;20231;-76
2023/10/05 03:16:48;;;;;;;7.78;2.63;;;;;;;;;;5051584;28;20694;-76
2023/10/05 03:19:23;;;;;;;6.68;2.40;;;;;;;;;;5041522;28;21815;-76
2023/10/05 03:22:04;;;;;;;7.68;2.97;;;;;;;;;;5068577;28;20032;-76
2023/10/05 03:24:30;;;;;;;7.10;2.75;;;;;;;;;;5079777;28;20040;-75
2023/10/05 03:26:55;;;;;;;8.20;2.90;;;;;;;;;;5065661;28;20424;-76
2023/10/05 03:29:21;;;;;;;5.90;2.70;;;;;;;;;;5060192;28;20046;-76
2023/10/05 03:32:20;;;;;;;7.63;3.33;;;;;;;;;;5071013;28;20037;-76
2023/10/05 03:34:42;;;;;;;6.60;2.92;;;;;;;;;;5059387;28;20028;-76
2023/10/05 03:37:08;;;;;;;7.47;2.10;;;;;;;;;;5062682;28;20047;-75
2023/10/05 03:39:51;;;;;;;7.07;2.10;;;;;;;;;;5037728;28;20703;-74
2023/10/05 03:42:17;;;;;;;7.50;2.88;;;;;;;;;;5042290;28;20041;-75
2023/10/05 03:44:42;;;;;;;5.68;2.22;;;;;;;;;;5069052;28;20559;-75
2023/10/05 03:47:08;;;;;;;5.53;2.10;;;;;;;;;;5071433;28;20553;-75
2023/10/05 03:49:33;;;;;;;6.00;1.88;;;;;;;;;;5073341;28;20039;-74
2023/10/05 03:51:59;;;;;;;6.82;2.50;;;;;;;;;;5068277;28;20032;-76
2023/10/05 03:54:24;;;;;;;6.38;2.58;;;;;;;;;;5063964;28;20049;-76
2023/10/05 03:57:04;;;;;;;7.13;2.85;;;;;;;;;;5066533;28;20032;-75
2023/10/05 03:59:30;;;;;;;5.95;2.50;;;;;;;;;;5068352;28;20500;-74
2023/10/05 04:01:55;;;;;;;5.93;2.28;;;;;;;;;;5066758;28;20036;-76
2023/10/05 04:04:22;;;;;;;7.70;2.78;;;;;;;;;;5072638;28;20113;-75
2023/10/05 04:06:51;;;;;;;5.10;2.45;;;;;;;;;;5068578;28;20044;-76
2023/10/05 04:09:19;;;;;;;4.15;1.98;;;;;;;;;;5038992;28;20037;-75
2023/10/05 04:11:45;;;;;;;6.57;2.45;;;;;;;;;;5066421;28;20094;-75
2023/10/05 04:14:12;;;;;;;7.43;2.50;;;;;;;;;;5067039;28;20040;-75
2023/10/05 04:16:38;;;;;;;8.52;2.67;;;;;;;;;;5053445;28;20040;-74
2023/10/05 04:19:04;;;;;;;8.57;2.78;;;;;;;;;;5064946;28;20033;-74
2023/10/05 04:21:33;;;;;;;6.07;3.13;;;;;;;;;;5058180;28;20172;-76
2023/10/05 04:23:59;;;;;;;6.18;2.72;;;;;;;;;;5069137;28;20457;-74
2023/10/05 04:26:39;;;;;;;7.93;2.20;;;;;;;;;;5064714;28;20048;-75
2023/10/05 04:29:07;;;;;;;7.68;3.03;;;;;;;;;;5080533;28;20016;-76
2023/10/05 04:31:35;;;;;;;6.45;2.75;;;;;;;;;;5081689;28;20019;-76
2023/10/05 04:34:05;;;;;;;7.22;2.67;;;;;;;;;;5079784;28;20437;-76
2023/10/05 04:36:31;;;;;;;4.53;2.47;;;;;;;;;;5065807;28;20175;-76
2023/10/05 04:38:56;;;;;;;5.28;2.08;;;;;;;;;;5048098;28;20120;-75
2023/10/05 04:41:49;;;;;;;6.85;2.28;;;;;;;;;;5067596;28;20059;-75
2023/10/05 04:44:12;;;;;;;8.50;2.30;;;;;;;;;;5051740;28;20691;-75
2023/10/05 04:46:46;;;;;;;8.13;2.60;;;;;;;;;;5050947;28;20144;-74
2023/10/05 04:49:12;;;;;;;8.75;3.03;;;;;;;;;;5066952;28;20064;-75
2023/10/05 04:51:40;;;;;;;6.72;2.58;;;;;;;;;;5067197;28;20109;-74
2023/10/05 04:54:07;;;;;;;7.10;2.50;;;;;;;;;;5066333;28;20138;-76
2023/10/05 05:07:01;;;;;;;5.30;2.33;;;;;;;;;;5048236;28;21045;-76
2023/10/05 05:09:30;;;;;;;5.72;2.15;;;;;;;;;;5057383;28;20048;-76
2023/10/05 05:12:03;;;;;;;6.00;2.30;;;;;;;;;;5034531;28;20129;-76
2023/10/05 05:14:32;;;;;;;7.50;2.60;;;;;;;;;;5047888;28;20520;-75
2023/10/05 05:17:05;;;;;;;5.68;2.30;;;;;;;;;;5049456;28;20041;-75
2023/10/05 05:19:31;;;;;;;6.57;2.40;;;;;;;;;;5020373;28;20118;-74
2023/10/05 05:21:59;;;;;;;6.88;2.47;;;;;;;;;;5069946;28;20059;-74
2023/10/05 05:24:28;;;;;;;3.85;2.42;;;;;;;;;;5061138;28;20619;-74
2023/10/05 05:26:54;;;;;;;10.13;3.10;;;;;;;;;;5047953;28;20048;-74
2023/10/05 05:29:19;;;;;;;5.65;2.60;;;;;;;;;;5065042;28;20087;-75
2023/10/05 05:31:44;;;;;;;3.83;2.13;;;;;;;;;;5053957;28;20036;-75
2023/10/05 05:34:10;;;;;;;6.25;2.13;;;;;;;;;;5066868;28;20615;-75
2023/10/05 05:36:36;;;;;;;6.45;2.42;;;;;;;;;;5071502;28;20040;-74
2023/10/05 05:39:03;;;;;;;6.63;2.42;;;;;;;;;;5071893;28;20444;-74
2023/10/05 05:41:29;;;;;;;6.63;2.78;;;;;;;;;;5065036;28;20086;-74
2023/10/05 05:43:55;;;;;;;5.85;2.38;;;;;;;;;;5059636;28;20130;-74
2023/10/05 05:46:22;;;;;;;8.13;2.65;;;;;;;;;;5060916;28;20186;-74
2023/10/05 05:48:52;;;;;;;5.38;2.10;;;;;;;;;;5071152;28;20630;-74
2023/10/05 05:51:21;;;;;;;8.52;3.15;;;;;;;;;;5061069;28;20039;-74
2023/10/05 05:53:47;;;;;;;5.68;2.47;;;;;;;;;;5068193;28;20044;-74
2023/10/05 05:56:25;;;;;;;7.38;2.47;;;;;;;;;;5063769;28;20036;-74
2023/10/05 05:58:50;;;;;;;7.47;2.78;;;;;;;;;;5063317;28;20040;-74
2023/10/05 06:01:20;;;;;;;4.38;2.30;;;;;;;;;;5062995;28;20050;-74
2023/10/05 06:03:49;;;;;;;6.07;2.17;;;;;;;;;;5059834;28;20043;-74
2023/10/05 06:06:16;;;;;;;5.22;2.28;;;;;;;;;;5067818;28;20042;-74
2023/10/05 06:08:42;;;;;;;6.47;1.92;;;;;;;;;;5068293;28;20047;-74
2023/10/05 06:11:08;;;;;;;6.68;2.63;;;;;;;;;;5069461;28;20607;-74
2023/10/05 06:13:37;;;;;;;6.85;2.80;;;;;;;;;;5040827;28;20063;-74
2023/10/05 06:16:13;;;;;;;6.47;2.40;;;;;;;;;;5048494;28;20531;-75
2023/10/05 06:18:38;;;;;;;4.93;1.92;;;;;;;;;;5058362;28;20516;-74
2023/10/05 06:21:04;;;;;;;4.97;2.13;;;;;;;;;;5062164;28;20043;-74
2023/10/05 06:23:33;;;;;;;4.32;1.80;;;;;;;;;;5068215;28;20659;-74
2023/10/05 06:26:02;;;;;;;5.50;2.28;;;;;;;;;;5052317;28;20473;-74
2023/10/05 06:28:28;;;;;;;5.07;1.95;;;;;;;;;;5062145;28;20032;-74
2023/10/05 06:30:54;;;;;;;5.13;1.98;;;;;;;;;;5047276;28;20040;-74
2023/10/05 06:33:20;;;;;;;5.05;2.10;;;;;;;;;;5060418;28;20038;-74
2023/10/05 06:35:46;;;;;;;4.82;1.80;;;;;;;;;;5047169;28;20037;-74
2023/10/05 06:38:12;;;;;;;5.13;2.20;;;;;;;;;;5066295;28;20048;-74
2023/10/05 06:40:37;;;;;;;6.18;2.08;;;;;;;;;;5057138;28;20381;-74
2023/10/05 06:43:05;;;;;;;5.78;2.60;;;;;;;;;;5067753;28;20036;-75
2023/10/05 06:45:31;;;;;;;4.38;2.20;;;;;;;;;;5048976;28;20036;-74
2023/10/05 06:47:56;;;;;;;5.45;2.13;;;;;;;;;;5057129;28;20059;-74
2023/10/05 06:50:22;;;;;;;4.50;2.03;;;;;;;;;;5064761;28;20032;-74
2023/10/05 06:52:48;;;;;;;6.40;2.20;;;;;;;;;;5062978;28;20491;-74
2023/10/05 06:55:17;;;;;;;6.55;2.05;;;;;;;;;;5041879;28;20505;-75
2023/10/05 06:57:44;;;;;;;5.90;2.50;;;;;;;;;;5068216;28;20564;-74
2023/10/05 07:00:12;;;;;;;5.75;2.10;;;;;;;;;;5049943;28;20577;-74
2023/10/05 07:02:39;;;;;;;3.30;1.98;;;;;;;;;;5068101;28;20039;-74
2023/10/05 07:05:08;;;;;;;6.10;2.10;;;;;;;;;;5064351;28;20443;-74
2023/10/05 07:07:37;;;;;;;5.95;2.45;;;;;;;;;;5056939;28;20102;-74
2023/10/05 07:10:03;;;;;;;4.15;1.85;;;;;;;;;;5067135;28;20056;-74
2023/10/05 07:12:35;;;;;;;4.75;1.95;;;;;;;;;;5065557;28;20385;-74
2023/10/05 07:15:00;;;;;;;;;;;;;;;;;;5057563;28;20051;-74
2023/10/05 07:17:26;;;;;;;3.67;1.48;;;;;;;;;;5066753;28;19919;-74
2023/10/05 07:19:52;;;;;;;4.93;2.60;;;;;;;;;;5053839;28;20036;-74
2023/10/05 07:22:18;;;;;;;6.65;1.90;;;;;;;;;;5044627;28;20040;-74
2023/10/05 07:24:46;;;;;;;5.70;1.90;;;;;;;;;;5070243;28;20032;-74
2023/10/05 07:27:12;;;;;;;3.90;1.70;;;;;;;;;;5068684;28;20040;-74
2023/10/05 07:29:37;;;;;;;3.42;1.52;;;;;;;;;;5055842;28;20043;-74
2023/10/05 07:32:06;;;;;;;4.90;2.00;;;;;;;;;;5066804;28;20114;-74
2023/10/05 07:34:31;;;;;;;9.48;2.40;;;;;;;;;;5052355;28;20040;-74
2023/10/05 07:36:57;;;;;;;8.30;2.00;;;;;;;;;;5069379;28;20047;-74
2023/10/05 07:39:23;;;;;;;7.65;2.10;;;;;;;;;;5070391;28;20043;-74
2023/10/05 07:41:49;;;;;;;5.75;2.00;;;;;;;;;;5055400;28;20082;-74
2023/10/05 07:44:16;;;;;;;4.55;1.98;;;;;;;;;;5068299;28;20490;-74
2023/10/05 07:46:43;;;;;;;4.13;1.52;;;;;;;;;;5061402;28;20033;-74
2023/10/05 07:49:08;;;;;;;5.05;2.13;;;;;;;;;;5057647;28;20036;-74
2023/10/05 07:51:34;;;;;;;4.53;1.65;;;;;;;;;;5069152;28;20554;-74
2023/10/05 07:53:59;;;;;;;5.35;1.90;;;;;;;;;;5071462;28;20040;-74
2023/10/05 07:56:25;;;;;;;4.95;2.22;;;;;;;;;;5072599;28;20028;-75
2023/10/05 07:58:50;;;;;;;5.78;2.20;;;;;;;;;;5071571;28;20120;-74
2023/10/05 08:01:17;;;;;;;4.38;1.90;;;;;;;;;;5062628;28;20487;-74
2023/10/05 08:03:43;;;;;;;4.07;1.90;;;;;;;;;;5061322;28;20036;-74
2023/10/05 08:06:12;;;;;;;5.40;1.92;;;;;;;;;;5070660;28;20040;-74
2023/10/05 08:08:40;;;;;;;4.45;1.77;;;;;;;;;;5071319;28;20051;-74
2023/10/05 08:11:06;;;;;;;4.57;1.85;;;;;;;;;;5067727;28;20123;-74
2023/10/05 08:13:31;;;;;;;3.95;1.88;;;;;;;;;;5068007;28;20832;-74
2023/10/05 08:15:57;;;;;;;9.68;2.35;;;;;;;;;;5055456;28;20024;-75
2023/10/05 08:18:22;;;;;;;6.13;1.70;;;;;;;;;;5065937;28;20118;-75
2023/10/05 08:20:47;;;;;;;4.22;2.17;;;;;;;;;;5071539;28;20115;-75
2023/10/05 08:23:13;;;;;;;3.97;1.75;;;;;;;;;;5063573;28;20497;-75
2023/10/05 08:25:38;;;;;;;5.90;1.73;;;;;;;;;;5065195;28;20035;-75
2023/10/05 08:28:04;;;;;;;4.00;1.40;;;;;;;;;;5068671;28;20106;-75
2023/10/05 08:30:33;;;;;;;7.85;1.90;;;;;;;;;;5051507;28;20562;-75
2023/10/05 08:33:03;;;;;;;6.32;1.60;;;;;;;;;;5065218;28;20048;-75
2023/10/05 08:35:40;;;;;;;4.57;1.85;;;;;;;;;;5049227;28;20036;-74
2023/10/05 08:38:09;;;;;;;5.35;1.88;;;;;;;;;;5064009;28;20028;-75
2023/10/05 08:43:08;;;;;;;2.55;1.40;;;;;;;;;;5051964;28;20032;-74
2023/10/05 08:45:45;;;;;;;2.90;1.40;;;;;;;;;;5064618;28;20036;-74
2023/10/05 08:48:34;;;;;;;2.95;1.67;;;;;;;;;;5064438;28;20036;-75
2023/10/05 08:51:06;;;;;;;3.00;1.80;;;;;;;;;;5059030;28;20036;-75
2023/10/05 08:53:34;;;;;;;4.35;1.77;;;;;;;;;;5055766;28;20496;-75
2023/10/05 08:56:00;;;;;;;3.53;1.35;;;;;;;;;;5060432;28;20040;-75
2023/10/05 08:58:28;;;;;;;6.55;2.08;;;;;;;;;;5067951;28;20491;-75
2023/10/05 09:00:58;;;;;;;4.03;1.58;;;;;;;;;;5048751;28;20433;-75
2023/10/05 09:03:30;;;;;;;4.50;2.00;;;;;;;;;;5064381;28;20067;-75
2023/10/05 09:06:20;;;;;;;5.75;1.70;;;;;;;;;;5060468;28;20028;-74
2023/10/05 09:08:54;;;;;;;3.08;1.75;;;;;;;;;;5065636;28;20095;-74
2023/10/05 09:11:34;;;;;;;4.13;1.73;;;;;;;;;;5066228;28;20039;-75
2023/10/05 09:14:17;;;;;;;4.78;1.73;;;;;;;;;;5066348;28;20038;-75
2023/10/05 09:16:45;;;;;;;5.40;3.35;;;;;;;;;;5042988;28;20582;-74
2023/10/05 09:19:18;;;;;;;4.55;1.60;;;;;;;;;;5058405;28;20599;-74
2023/10/05 09:21:50;;;;;;;4.97;1.90;;;;;;;;;;5049992;28;20040;-74
2023/10/05 09:24:20;;;;;;;5.82;2.05;;;;;;;;;;5047132;28;20042;-74
2023/10/05 09:27:12;;;;;;;3.35;1.52;;;;;;;;;;5067977;28;20068;-74
2023/10/05 09:29:39;;;;;;;3.63;1.80;;;;;;;;;;5041338;28;20049;-74
2023/10/05 09:32:08;;;;;;;2.70;1.55;;;;;;;;;;5048443;28;20093;-74
2023/10/05 09:34:34;;;;;;;4.40;2.00;;;;;;;;;;5044190;28;20032;-74
2023/10/05 09:37:05;;;;;;;2.60;1.83;;;;;;;;;;5062875;28;20767;-74
2023/10/05 09:39:32;;;;;;;;;;;;;;;;;;5069354;28;20040;-74
2023/10/05 09:42:01;;;;;;;4.35;1.50;;;;;;;;;;5062751;28;19912;-74
2023/10/05 09:44:30;;;;;;;5.65;2.20;;;;;;;;;;5067783;28;20033;-74
2023/10/05 09:46:59;;;;;;;4.70;1.83;;;;;;;;;;5059726;28;20052;-74
2023/10/05 09:49:30;;;;;;;4.10;1.42;;;;;;;;;;5061973;28;20906;-74
2023/10/05 09:51:57;;;;;;;5.50;1.90;;;;;;;;;;5067147;28;20594;-74
2023/10/05 09:54:27;;;;;;;3.88;1.85;;;;;;;;;;5051023;28;20489;-74
2023/10/05 09:56:53;;;;;;;2.92;1.52;;;;;;;;;;5060893;28;20064;-74
2023/10/05 09:59:19;;;;;;;3.53;1.58;;;;;;;;;;5046002;28;20739;-74
2023/10/05 10:01:47;;;;;;;3.83;1.50;;;;;;;;;;5062428;28;20036;-74
2023/10/05 10:04:28;;;;;;;4.75;1.50;;;;;;;;;;5060564;28;20410;-74
2023/10/05 10:06:55;;;;;;;4.65;1.95;;;;;;;;;;5045682;28;20061;-74
2023/10/05 10:09:26;;;;;;;4.28;1.90;;;;;;;;;;5064616;28;20497;-74
2023/10/05 10:11:57;;;;;;;5.38;1.95;;;;;;;;;;5067643;28;20028;-76
2023/10/05 10:14:26;;;;;;;3.92;1.65;;;;;;;;;;5063550;28;20028;-76
2023/10/05 10:17:00;;;;;;;6.07;1.70;;;;;;;;;;5057041;28;20048;-75
2023/10/05 10:19:26;;;;;;;4.03;1.60;;;;;;;;;;5058946;28;20060;-75
2023/10/05 10:22:11;;;;;;;2.97;1.55;;;;;;;;;;5070416;28;20227;-76
2023/10/05 10:24:37;;;;;;;3.15;1.58;;;;;;;;;;5065272;28;20036;-76
2023/10/05 10:27:07;;;;;;;4.75;1.80;;;;;;;;;;5064730;28;20036;-76
2023/10/05 10:29:45;;;;;;;2.13;1.30;;;;;;;;;;5062606;28;20720;-76
2023/10/05 10:32:31;;;;;;;4.57;1.92;;;;;;;;;;5037561;28;20711;-76
2023/10/05 10:35:10;;;;;;;2.00;1.42;;;;;;;;;;5062804;28;20033;-76
2023/10/05 10:37:49;;;;;;;2.63;1.52;;;;;;;;;;5062233;28;20115;-76
2023/10/05 10:45:31;;;;;;;2.60;1.52;;;;;;;;;;5063509;28;20128;-76
2023/10/05 10:47:56;;;;;;;6.70;2.20;;;;;;;;;;5059423;28;20079;-76
2023/10/05 10:50:22;;;;;;;2.97;1.63;;;;;;;;;;5064002;28;20024;-76
2023/10/05 10:52:55;;;;;;;4.07;1.60;;;;;;;;;;5043303;28;20044;-76
2023/10/05 10:55:21;;;;;;;5.90;2.22;;;;;;;;;;5068484;28;20120;-76
2023/10/05 10:57:48;;;;;;;3.40;1.98;;;;;;;;;;5061775;28;20594;-76
2023/10/05 11:02:59;;;;;;;4.93;1.77;;;;;;;;;;5066809;28;20059;-76
2023/10/05 11:05:47;;;;;;;3.45;1.77;;;;;;;;;;5047036;28;20036;-76
2023/10/05 11:08:15;;;;;;;6.63;1.80;;;;;;;;;;5067142;28;20036;-76
2023/10/05 11:10:40;;;;;;;6.47;2.47;;;;;;;;;;5076177;28;20093;-76
2023/10/05 11:13:18;;;;;;;5.88;2.00;;;;;;;;;;5069790;28;20686;-75
2023/10/05 11:16:00;;;;;;;2.83;1.55;;;;;;;;;;5053051;28;20024;-76
2023/10/05 11:18:30;;;;;;;4.95;2.10;;;;;;;;;;5066418;28;20036;-76
2023/10/05 11:21:17;;;;;;;5.03;2.05;;;;;;;;;;5065768;28;20133;-76
2023/10/05 11:23:55;;;;;;;4.45;1.95;;;;;;;;;;5068713;28;20032;-76
2023/10/05 11:28:56;;;;;;;3.22;1.73;;;;;;;;;;5074443;28;20432;-76
2023/10/05 11:31:24;;;;;;;2.65;1.60;;;;;;;;;;5058571;28;20140;-76
2023/10/05 11:33:53;;;;;;;3.70;1.75;;;;;;;;;;5064239;28;20052;-76
2023/10/05 11:36:22;;;;;;;3.65;1.70;;;;;;;;;;5070711;28;20081;-76
2023/10/05 11:38:57;;;;;;;3.20;1.40;;;;;;;;;;5063916;28;20050;-75
2023/10/05 11:41:28;;;;;;;4.65;1.70;;;;;;;;;;5070204;28;20090;-76
2023/10/05 11:43:58;;;;;;;5.78;2.15;;;;;;;;;;5047311;28;20085;-76
2023/10/05 11:46:29;;;;;;;4.72;1.85;;;;;;;;;;5069637;28;20070;-76
2023/10/05 11:48:56;;;;;;;3.55;1.60;;;;;;;;;;5074026;28;20062;-76
2023/10/05 11:51:41;;;;;;;3.75;1.60;;;;;;;;;;5057364;28;21156;-76
2023/10/05 11:54:10;;;;;;;5.15;1.70;;;;;;;;;;5074884;28;20070;-76
2023/10/05 11:56:38;;;;;;;4.68;1.60;;;;;;;;;;5067688;28;20032;-76
2023/10/05 11:59:05;;;;;;;5.05;1.63;;;;;;;;;;5068385;28;20032;-75
2023/10/05 12:01:32;;;;;;;2.58;1.33;;;;;;;;;;5060525;28;20086;-76
2023/10/05 12:03:58;;;;;;;5.85;2.20;;;;;;;;;;5067284;28;20122;-76
2023/10/05 12:06:25;;;;;;;3.40;1.70;;;;;;;;;;5076370;28;20588;-76
2023/10/05 12:08:53;;;;;;;2.15;1.52;;;;;;;;;;5069145;28;20524;-76
2023/10/05 12:11:23;;;;;;;7.15;1.65;;;;;;;;;;5068515;28;20046;-76
2023/10/05 12:13:50;;;;;;;3.13;1.75;;;;;;;;;;5068586;28;20040;-76
2023/10/05 12:16:16;;;;;;;5.13;1.90;;;;;;;;;;5054303;28;21110;-76
2023/10/05 12:18:42;;;;;;;2.63;1.33;;;;;;;;;;5065797;28;20090;-76
2023/10/05 12:21:09;;;;;;;3.78;1.50;;;;;;;;;;5067515;28;20051;-76
2023/10/05 12:23:35;;;;;;;4.75;1.50;;;;;;;;;;5069749;28;20531;-76
2023/10/05 12:26:03;;;;;;;4.50;1.80;;;;;;;;;;5049525;28;20085;-76
2023/10/05 12:28:30;;;;;;;3.78;1.73;;;;;;;;;;5058490;28;20041;-76
2023/10/05 12:30:55;;;;;;;3.15;1.33;;;;;;;;;;5071246;28;20528;-76
2023/10/05 12:33:20;;;;;;;3.03;1.50;;;;;;;;;;5065956;28;20051;-76
2023/10/05 12:35:52;;;;;;;5.05;1.80;;;;;;;;;;5059631;28;20024;-76
2023/10/05 12:38:18;;;;;;;2.65;1.50;;;;;;;;;;5068713;28;20623;-76
2023/10/05 12:40:47;;;;;;;2.42;1.50;;;;;;;;;;5069166;28;20733;-76
2023/10/05 12:43:16;;;;;;;4.22;1.65;;;;;;;;;;5061188;28;20040;-76
2023/10/05 12:45:43;;;;;;;3.38;1.30;;;;;;;;;;5070047;28;20036;-76
2023/10/05 12:48:11;;;;;;;3.08;1.60;;;;;;;;;;5063611;28;20040;-77
2023/10/05 12:50:37;;;;;;;1.85;1.35;;;;;;;;;;5067846;28;20695;-76
2023/10/05 12:53:03;;;;;;;5.18;2.00;;;;;;;;;;5066128;28;20036;-76
2023/10/05 12:55:29;;;;;;;3.80;1.52;;;;;;;;;;5059568;28;20090;-76
2023/10/05 12:57:55;;;;;;;4.78;1.83;;;;;;;;;;5064000;28;20032;-76
2023/10/05 13:00:25;;;;;;;3.78;1.77;;;;;;;;;;5066959;28;20094;-76
2023/10/05 13:02:52;;;;;;;4.38;1.77;;;;;;;;;;5059372;28;20047;-76
2023/10/05 13:05:29;;;;;;;3.92;1.80;;;;;;;;;;5073022;28;20070;-76
2023/10/05 13:07:55;;;;;;;5.20;1.85;;;;;;;;;;5057059;28;20036;-76
2023/10/05 13:10:26;;;;;;;3.80;1.48;;;;;;;;;;5067016;28;20090;-76
2023/10/05 13:12:53;;;;;;;5.63;1.75;;;;;;;;;;5064574;28;20121;-76
2023/10/05 13:15:25;;;;;;;5.38;2.10;;;;;;;;;;5060148;28;20028;-76
2023/10/05 13:17:56;;;;;;;3.42;1.60;;;;;;;;;;5065041;28;20043;-76
2023/10/05 13:20:24;;;;;;;5.57;1.98;;;;;;;;;;5055424;28;20093;-76
2023/10/05 13:22:53;;;;;;;3.83;1.60;;;;;;;;;;5075156;28;20066;-76
2023/10/05 13:25:25;;;;;;;4.15;2.00;;;;;;;;;;5042622;28;20048;-76
2023/10/05 13:27:52;;;;;;;3.00;1.63;;;;;;;;;;5058625;28;20039;-76
2023/10/05 13:30:22;;;;;;;2.85;1.60;;;;;;;;;;5063892;28;20467;-76
2023/10/05 13:32:49;;;;;;;3.97;2.05;;;;;;;;;;5061174;28;20032;-76
2023/10/05 13:35:18;;;;;;;2.70;1.50;;;;;;;;;;5059131;28;20069;-76
2023/10/05 13:37:44;;;;;;;6.55;2.60;;;;;;;;;;5068401;28;20532;-76
2023/10/05 13:40:15;;;;;;;4.97;2.15;;;;;;;;;;5064346;28;20043;-76
2023/10/05 13:42:43;;;;;;;6.15;2.38;;;;;;;;;;5071052;28;20732;-76
2023/10/05 13:45:10;;;;;;;3.42;2.08;;;;;;;;;;5050291;28;20040;-76
2023/10/05 13:47:36;;;;;;;4.32;1.92;;;;;;;;;;5057034;28;20068;-76
2023/10/05 13:50:07;;;;;;;1.67;1.50;;;;;;;;;;5067424;28;20067;-76
2023/10/05 13:52:33;;;;;;;;;;;;;;;;;;5065034;28;20075;-76
2023/10/05 13:54:59;;;;;;;4.60;3.17;;;;;;;;;;5050460;28;19916;-76
2023/10/05 13:57:28;;;;;;;5.07;1.90;;;;;;;;;;5040325;28;20037;-76
2023/10/05 13:59:54;;;;;;;3.97;1.70;;;;;;;;;;5060727;28;20040;-76
2023/10/05 14:02:20;;;;;;;4.35;1.70;;;;;;;;;;5029729;28;20623;-76
2023/10/05 14:04:45;;;;;;;3.20;1.63;;;;;;;;;;5067711;28;20048;-76
2023/10/05 14:07:12;;;;;;;2.78;1.90;;;;;;;;;;5041526;28;20052;-76
2023/10/05 14:09:43;;;;;;;3.60;1.48;;;;;;;;;;5043707;28;20043;-76
2023/10/05 14:12:10;;;;;;;;;;;;;;;;;;5045934;28;20147;-77
2023/10/05 14:14:35;;;;;;;4.30;1.92;;;;;;;;;;5054052;28;19916;-76
2023/10/05 14:17:06;;;;;;;2.03;1.50;;;;;;;;;;5069547;28;20044;-76
2023/10/05 14:19:33;;;;;;;2.88;1.80;;;;;;;;;;5058507;28;20076;-76
2023/10/05 14:22:03;;;;;;;4.68;1.73;;;;;;;;;;5056610;28;20035;-76
2023/10/05 14:24:32;;;;;;;3.42;1.65;;;;;;;;;;5065766;28;20051;-76
2023/10/05 14:26:59;;;;;;;3.65;1.90;;;;;;;;;;5055529;28;20040;-76
2023/10/05 14:29:34;;;;;;;3.08;1.48;;;;;;;;;;5068856;28;20044;-76
2023/10/05 14:32:04;;;;;;;6.35;1.77;;;;;;;;;;5066650;28;20123;-76
2023/10/05 14:34:33;;;;;;;2.28;1.45;;;;;;;;;;5067541;28;20040;-76
2023/10/05 14:36:59;;;;;;;2.47;1.20;;;;;;;;;;5069598;28;20032;-76
2023/10/05 14:39:32;;;;;;;3.03;1.75;;;;;;;;;;5054702;28;20043;-76
2023/10/05 14:42:01;;;;;;;2.97;1.30;;;;;;;;;;5062862;28;20036;-76
2023/10/05 14:44:35;;;;;;;2.60;1.52;;;;;;;;;;5068913;28;20167;-76
2023/10/05 14:47:04;;;;;;;4.45;2.05;;;;;;;;;;5064282;28;20039;-76
2023/10/05 14:49:31;;;;;;;2.63;1.23;;;;;;;;;;5061297;28;20071;-76
2023/10/05 14:51:57;;;;;;;6.63;2.65;;;;;;;;;;5056416;28;20090;-76
2023/10/05 14:54:22;;;;;;;4.40;1.75;;;;;;;;;;5069380;28;20143;-76
2023/10/05 14:56:48;;;;;;;1.85;1.10;;;;;;;;;;5068914;28;20035;-76
2023/10/05 14:59:13;;;;;;;1.92;1.52;;;;;;;;;;5054818;28;20119;-76
2023/10/05 15:01:40;;;;;;;3.63;1.50;;;;;;;;;;5060162;28;20040;-76
2023/10/05 15:04:06;;;;;;;2.80;1.52;;;;;;;;;;5058168;28;20040;-76
2023/10/05 15:06:31;;;;;;;3.03;1.65;;;;;;;;;;5061305;28;20710;-76
2023/10/05 15:08:57;;;;;;;2.65;1.35;;;;;;;;;;5067457;28;20028;-76
2023/10/05 15:11:26;;;;;;;3.05;1.00;;;;;;;;;;5053547;28;20037;-76
2023/10/05 15:13:54;;;;;;;1.00;0.90;;;;;;;;;;5065358;28;20036;-76
2023/10/05 15:16:23;;;;;;;2.80;1.17;;;;;;;;;;5063086;28;20520;-77
2023/10/05 15:18:48;;;;;;;4.07;1.80;;;;;;;;;;5053603;28;20101;-76
2023/10/05 15:21:15;;;;;;;2.38;1.25;;;;;;;;;;5051340;28;21006;-76
2023/10/05 15:23:41;;;;;;;3.17;1.70;;;;;;;;;;5060775;28;20071;-76
2023/10/05 15:26:07;;;;;;;1.63;1.10;;;;;;;;;;5060698;28;20056;-76
2023/10/05 15:28:33;;;;;;;2.88;1.52;;;;;;;;;;5068173;28;20114;-76
2023/10/05 15:30:58;;;;;;;2.47;1.10;;;;;;;;;;5043918;28;20741;-76
2023/10/05 15:33:26;;;;;;;2.28;1.13;;;;;;;;;;5053366;28;20098;-76
2023/10/05 15:35:52;;;;;;;3.65;1.25;;;;;;;;;;5065390;28;20032;-76